sensor_id;sensor_type;location;lat;lon;timestamp;P1;durP1;ratioP1;P2;durP2;ratioP2
74963;SDS011;63521;51.900;4.748;2023-05-29T00:02:00;3.40;;;1.30;;
74963;SDS011;63521;51.900;4.748;2023-05-29T00:04:26;3.65;;;1.70;;
74963;SDS011;63521;51.900;4.748;2023-05-29T00:06:51;5.20;;;1.50;;
74963;SDS011;63521;51.900;4.748;2023-05-29T00:09:17;5.93;;;1.80;;
74963;SDS011;63521;51.900;4.748;2023-05-29T00:11:42;3.95;;;1.40;;
74963;SDS011;63521;51.900;4.748;2023-05-29T00:14:08;4.80;;;1.30;;
74963;SDS011;63521;51.900;4.748;2023-05-29T00:16:37;2.33;;;1.38;;
74963;SDS011;63521;51.900;4.748;2023-05-29T00:19:03;4.88;;;1.70;;
74963;SDS011;63521;51.900;4.748;2023-05-29T00:21:28;3.88;;;1.55;;
74963;SDS011;63521;51.900;4.748;2023-05-29T00:24:00;2.65;;;1.40;;
74963;SDS011;63521;51.900;4.748;2023-05-29T00:26:26;4.70;;;1.40;;
74963;SDS011;63521;51.900;4.748;2023-05-29T00:28:51;5.45;;;1.60;;
74963;SDS011;63521;51.900;4.748;2023-05-29T00:31:16;4.07;;;1.15;;
74963;SDS011;63521;51.900;4.748;2023-05-29T00:33:42;5.13;;;1.40;;
74963;SDS011;63521;51.900;4.748;2023-05-29T00:36:08;6.57;;;1.73;;
74963;SDS011;63521;51.900;4.748;2023-05-29T00:38:33;6.53;;;1.65;;
74963;SDS011;63521;51.900;4.748;2023-05-29T00:40:58;5.05;;;1.42;;
74963;SDS011;63521;51.900;4.748;2023-05-29T00:43:24;3.15;;;1.20;;
74963;SDS011;63521;51.900;4.748;2023-05-29T00:45:49;3.30;;;1.17;;
74963;SDS011;63521;51.900;4.748;2023-05-29T00:48:15;4.20;;;1.35;;
74963;SDS011;63521;51.900;4.748;2023-05-29T00:50:40;2.92;;;1.33;;
74963;SDS011;63521;51.900;4.748;2023-05-29T00:53:06;5.03;;;1.25;;
74963;SDS011;63521;51.900;4.748;2023-05-29T00:55:33;4.70;;;1.20;;
74963;SDS011;63521;51.900;4.748;2023-05-29T00:57:59;4.55;;;1.30;;
74963;SDS011;63521;51.900;4.748;2023-05-29T01:00:24;1.80;;;1.17;;
74963;SDS011;63521;51.900;4.748;2023-05-29T01:02:50;3.17;;;1.70;;
74963;SDS011;63521;51.900;4.748;2023-05-29T01:05:17;2.20;;;1.27;;
74963;SDS011;63521;51.900;4.748;2023-05-29T01:07:44;4.15;;;1.35;;
74963;SDS011;63521;51.900;4.748;2023-05-29T01:10:09;3.22;;;1.02;;
74963;SDS011;63521;51.900;4.748;2023-05-29T01:12:49;2.78;;;1.20;;
74963;SDS011;63521;51.900;4.748;2023-05-29T01:15:21;4.82;;;2.00;;
74963;SDS011;63521;51.900;4.748;2023-05-29T01:21:03;2.33;;;0.95;;
74963;SDS011;63521;51.900;4.748;2023-05-29T01:24:01;3.67;;;1.30;;
74963;SDS011;63521;51.900;4.748;2023-05-29T01:29:07;2.10;;;1.17;;
74963;SDS011;63521;51.900;4.748;2023-05-29T01:31:33;3.65;;;1.30;;
74963;SDS011;63521;51.900;4.748;2023-05-29T01:34:00;3.15;;;1.70;;
74963;SDS011;63521;51.900;4.748;2023-05-29T01:36:26;3.55;;;1.23;;
74963;SDS011;63521;51.900;4.748;2023-05-29T01:38:53;3.72;;;1.20;;
74963;SDS011;63521;51.900;4.748;2023-05-29T01:41:20;3.45;;;1.48;;
74963;SDS011;63521;51.900;4.748;2023-05-29T01:43:47;4.43;;;1.17;;
74963;SDS011;63521;51.900;4.748;2023-05-29T01:46:13;3.13;;;1.30;;
74963;SDS011;63521;51.900;4.748;2023-05-29T01:48:39;3.78;;;1.15;;
74963;SDS011;63521;51.900;4.748;2023-05-29T01:51:06;3.42;;;1.20;;
74963;SDS011;63521;51.900;4.748;2023-05-29T01:53:32;3.15;;;1.40;;
74963;SDS011;63521;51.900;4.748;2023-05-29T01:55:57;4.30;;;1.27;;
74963;SDS011;63521;51.900;4.748;2023-05-29T01:58:23;0.98;;;0.70;;
74963;SDS011;63521;51.900;4.748;2023-05-29T02:00:49;4.05;;;1.20;;
74963;SDS011;63521;51.900;4.748;2023-05-29T02:03:14;2.65;;;0.88;;
74963;SDS011;63521;51.900;4.748;2023-05-29T02:05:40;2.35;;;1.17;;
74963;SDS011;63521;51.900;4.748;2023-05-29T02:08:05;4.45;;;1.45;;
74963;SDS011;63521;51.900;4.748;2023-05-29T02:10:31;4.35;;;1.35;;
74963;SDS011;63521;51.900;4.748;2023-05-29T02:12:57;4.45;;;1.02;;
74963;SDS011;63521;51.900;4.748;2023-05-29T02:15:22;5.55;;;1.65;;
74963;SDS011;63521;51.900;4.748;2023-05-29T02:17:48;3.53;;;0.82;;
74963;SDS011;63521;51.900;4.748;2023-05-29T02:20:14;3.88;;;0.93;;
74963;SDS011;63521;51.900;4.748;2023-05-29T02:22:40;3.70;;;1.35;;
74963;SDS011;63521;51.900;4.748;2023-05-29T02:25:06;4.80;;;1.65;;
74963;SDS011;63521;51.900;4.748;2023-05-29T02:27:32;3.67;;;1.20;;
74963;SDS011;63521;51.900;4.748;2023-05-29T02:29:57;5.25;;;1.20;;
74963;SDS011;63521;51.900;4.748;2023-05-29T02:32:23;2.10;;;1.00;;
74963;SDS011;63521;51.900;4.748;2023-05-29T02:34:49;3.38;;;1.13;;
74963;SDS011;63521;51.900;4.748;2023-05-29T02:37:14;6.25;;;1.20;;
74963;SDS011;63521;51.900;4.748;2023-05-29T02:39:40;4.68;;;1.00;;
74963;SDS011;63521;51.900;4.748;2023-05-29T02:42:05;2.47;;;1.00;;
74963;SDS011;63521;51.900;4.748;2023-05-29T02:44:31;4.60;;;1.00;;
74963;SDS011;63521;51.900;4.748;2023-05-29T02:46:56;2.10;;;1.10;;
74963;SDS011;63521;51.900;4.748;2023-05-29T02:49:22;3.20;;;1.20;;
74963;SDS011;63521;51.900;4.748;2023-05-29T02:51:47;3.60;;;1.02;;
74963;SDS011;63521;51.900;4.748;2023-05-29T02:54:12;4.18;;;1.00;;
74963;SDS011;63521;51.900;4.748;2023-05-29T02:56:38;5.07;;;1.08;;
74963;SDS011;63521;51.900;4.748;2023-05-29T02:59:04;3.50;;;0.90;;
74963;SDS011;63521;51.900;4.748;2023-05-29T03:01:29;3.78;;;1.20;;
74963;SDS011;63521;51.900;4.748;2023-05-29T03:03:55;4.25;;;1.35;;
74963;SDS011;63521;51.900;4.748;2023-05-29T03:06:21;3.97;;;0.85;;
74963;SDS011;63521;51.900;4.748;2023-05-29T03:08:46;3.33;;;0.95;;
74963;SDS011;63521;51.900;4.748;2023-05-29T03:11:13;2.50;;;1.00;;
74963;SDS011;63521;51.900;4.748;2023-05-29T03:13:40;2.70;;;0.88;;
74963;SDS011;63521;51.900;4.748;2023-05-29T03:16:05;3.25;;;1.23;;
74963;SDS011;63521;51.900;4.748;2023-05-29T03:18:33;2.65;;;0.98;;
74963;SDS011;63521;51.900;4.748;2023-05-29T03:20:58;2.58;;;0.88;;
74963;SDS011;63521;51.900;4.748;2023-05-29T03:23:24;3.78;;;1.15;;
74963;SDS011;63521;51.900;4.748;2023-05-29T03:25:49;2.47;;;0.80;;
74963;SDS011;63521;51.900;4.748;2023-05-29T03:28:14;2.97;;;1.23;;
74963;SDS011;63521;51.900;4.748;2023-05-29T03:30:40;2.65;;;0.82;;
74963;SDS011;63521;51.900;4.748;2023-05-29T03:33:06;2.53;;;0.98;;
74963;SDS011;63521;51.900;4.748;2023-05-29T03:35:31;2.63;;;1.13;;
74963;SDS011;63521;51.900;4.748;2023-05-29T03:37:56;4.90;;;1.23;;
74963;SDS011;63521;51.900;4.748;2023-05-29T03:40:22;4.38;;;1.05;;
74963;SDS011;63521;51.900;4.748;2023-05-29T03:42:47;2.33;;;0.80;;
74963;SDS011;63521;51.900;4.748;2023-05-29T03:45:13;3.42;;;1.15;;
74963;SDS011;63521;51.900;4.748;2023-05-29T03:47:38;3.55;;;1.17;;
74963;SDS011;63521;51.900;4.748;2023-05-29T03:50:04;3.72;;;1.40;;
74963;SDS011;63521;51.900;4.748;2023-05-29T03:52:29;3.05;;;1.38;;
74963;SDS011;63521;51.900;4.748;2023-05-29T03:54:55;2.88;;;0.95;;
74963;SDS011;63521;51.900;4.748;2023-05-29T03:57:20;2.75;;;0.70;;
74963;SDS011;63521;51.900;4.748;2023-05-29T03:59:45;2.92;;;0.77;;
74963;SDS011;63521;51.900;4.748;2023-05-29T04:02:11;3.75;;;1.00;;
74963;SDS011;63521;51.900;4.748;2023-05-29T04:04:36;3.42;;;1.40;;
74963;SDS011;63521;51.900;4.748;2023-05-29T04:07:02;2.38;;;0.85;;
74963;SDS011;63521;51.900;4.748;2023-05-29T04:09:28;2.72;;;0.77;;
74963;SDS011;63521;51.900;4.748;2023-05-29T04:11:54;3.28;;;1.10;;
74963;SDS011;63521;51.900;4.748;2023-05-29T04:14:20;1.88;;;0.85;;
74963;SDS011;63521;51.900;4.748;2023-05-29T04:16:45;2.92;;;1.00;;
74963;SDS011;63521;51.900;4.748;2023-05-29T04:19:11;3.17;;;1.38;;
74963;SDS011;63521;51.900;4.748;2023-05-29T04:21:36;5.35;;;1.20;;
74963;SDS011;63521;51.900;4.748;2023-05-29T04:24:02;4.18;;;0.90;;
74963;SDS011;63521;51.900;4.748;2023-05-29T04:26:27;3.00;;;0.98;;
74963;SDS011;63521;51.900;4.748;2023-05-29T04:28:53;3.67;;;0.93;;
74963;SDS011;63521;51.900;4.748;2023-05-29T04:31:25;2.42;;;0.77;;
74963;SDS011;63521;51.900;4.748;2023-05-29T04:33:51;2.22;;;0.85;;
74963;SDS011;63521;51.900;4.748;2023-05-29T04:36:25;3.65;;;0.80;;
74963;SDS011;63521;51.900;4.748;2023-05-29T04:38:52;3.47;;;1.00;;
74963;SDS011;63521;51.900;4.748;2023-05-29T04:41:20;4.30;;;0.73;;
74963;SDS011;63521;51.900;4.748;2023-05-29T04:43:49;2.13;;;0.75;;
74963;SDS011;63521;51.900;4.748;2023-05-29T04:46:16;2.40;;;0.75;;
74963;SDS011;63521;51.900;4.748;2023-05-29T04:48:42;6.07;;;0.90;;
74963;SDS011;63521;51.900;4.748;2023-05-29T04:51:07;2.60;;;0.80;;
74963;SDS011;63521;51.900;4.748;2023-05-29T04:53:35;3.42;;;0.93;;
74963;SDS011;63521;51.900;4.748;2023-05-29T04:56:02;2.42;;;0.90;;
74963;SDS011;63521;51.900;4.748;2023-05-29T04:58:27;3.08;;;0.70;;
74963;SDS011;63521;51.900;4.748;2023-05-29T05:00:53;3.55;;;0.90;;
74963;SDS011;63521;51.900;4.748;2023-05-29T05:03:22;2.92;;;0.90;;
74963;SDS011;63521;51.900;4.748;2023-05-29T05:05:49;3.33;;;0.85;;
74963;SDS011;63521;51.900;4.748;2023-05-29T05:08:15;2.95;;;0.70;;
74963;SDS011;63521;51.900;4.748;2023-05-29T05:10:40;3.25;;;1.10;;
74963;SDS011;63521;51.900;4.748;2023-05-29T05:13:06;2.63;;;0.90;;
74963;SDS011;63521;51.900;4.748;2023-05-29T05:15:32;6.15;;;1.00;;
74963;SDS011;63521;51.900;4.748;2023-05-29T05:17:57;1.90;;;0.80;;
74963;SDS011;63521;51.900;4.748;2023-05-29T05:20:23;3.53;;;1.02;;
74963;SDS011;63521;51.900;4.748;2023-05-29T05:22:48;4.00;;;1.38;;
74963;SDS011;63521;51.900;4.748;2023-05-29T05:25:14;5.43;;;1.45;;
74963;SDS011;63521;51.900;4.748;2023-05-29T05:27:42;1.63;;;0.90;;
74963;SDS011;63521;51.900;4.748;2023-05-29T05:30:23;3.42;;;1.00;;
74963;SDS011;63521;51.900;4.748;2023-05-29T05:32:48;4.00;;;0.98;;
74963;SDS011;63521;51.900;4.748;2023-05-29T05:35:23;3.17;;;0.82;;
74963;SDS011;63521;51.900;4.748;2023-05-29T05:37:49;4.30;;;1.30;;
74963;SDS011;63521;51.900;4.748;2023-05-29T05:40:14;1.65;;;0.75;;
74963;SDS011;63521;51.900;4.748;2023-05-29T05:42:40;3.05;;;0.98;;
74963;SDS011;63521;51.900;4.748;2023-05-29T05:45:05;2.40;;;0.88;;
74963;SDS011;63521;51.900;4.748;2023-05-29T05:47:32;5.20;;;1.10;;
74963;SDS011;63521;51.900;4.748;2023-05-29T05:49:57;4.07;;;1.08;;
74963;SDS011;63521;51.900;4.748;2023-05-29T05:52:23;2.63;;;0.90;;
74963;SDS011;63521;51.900;4.748;2023-05-29T05:54:49;3.63;;;0.80;;
74963;SDS011;63521;51.900;4.748;2023-05-29T05:57:14;3.70;;;1.02;;
74963;SDS011;63521;51.900;4.748;2023-05-29T05:59:40;1.38;;;0.80;;
74963;SDS011;63521;51.900;4.748;2023-05-29T06:02:06;4.80;;;1.10;;
74963;SDS011;63521;51.900;4.748;2023-05-29T06:04:31;2.53;;;1.23;;
74963;SDS011;63521;51.900;4.748;2023-05-29T06:06:56;3.88;;;0.93;;
74963;SDS011;63521;51.900;4.748;2023-05-29T06:09:22;3.85;;;1.20;;
74963;SDS011;63521;51.900;4.748;2023-05-29T06:11:47;4.45;;;1.58;;
74963;SDS011;63521;51.900;4.748;2023-05-29T06:14:13;4.20;;;1.23;;
74963;SDS011;63521;51.900;4.748;2023-05-29T06:16:39;3.30;;;1.20;;
74963;SDS011;63521;51.900;4.748;2023-05-29T06:19:05;3.60;;;1.02;;
74963;SDS011;63521;51.900;4.748;2023-05-29T06:21:31;2.67;;;1.10;;
74963;SDS011;63521;51.900;4.748;2023-05-29T06:23:57;6.05;;;1.58;;
74963;SDS011;63521;51.900;4.748;2023-05-29T06:26:22;9.68;;;2.08;;
74963;SDS011;63521;51.900;4.748;2023-05-29T06:28:48;7.85;;;2.00;;
74963;SDS011;63521;51.900;4.748;2023-05-29T06:31:14;9.27;;;1.63;;
74963;SDS011;63521;51.900;4.748;2023-05-29T06:33:39;5.97;;;1.50;;
74963;SDS011;63521;51.900;4.748;2023-05-29T06:36:05;9.07;;;1.67;;
74963;SDS011;63521;51.900;4.748;2023-05-29T06:38:31;8.68;;;1.90;;
74963;SDS011;63521;51.900;4.748;2023-05-29T06:40:57;11.98;;;2.80;;
74963;SDS011;63521;51.900;4.748;2023-05-29T06:43:22;8.45;;;1.80;;
74963;SDS011;63521;51.900;4.748;2023-05-29T06:45:47;3.65;;;1.50;;
74963;SDS011;63521;51.900;4.748;2023-05-29T06:48:13;5.10;;;1.67;;
74963;SDS011;63521;51.900;4.748;2023-05-29T06:50:38;6.75;;;1.40;;
74963;SDS011;63521;51.900;4.748;2023-05-29T06:53:03;6.88;;;1.67;;
74963;SDS011;63521;51.900;4.748;2023-05-29T06:55:29;5.28;;;1.52;;
74963;SDS011;63521;51.900;4.748;2023-05-29T06:57:54;5.43;;;1.45;;
74963;SDS011;63521;51.900;4.748;2023-05-29T07:00:20;5.10;;;1.50;;
74963;SDS011;63521;51.900;4.748;2023-05-29T07:02:46;5.00;;;1.77;;
74963;SDS011;63521;51.900;4.748;2023-05-29T07:05:11;6.10;;;1.70;;
74963;SDS011;63521;51.900;4.748;2023-05-29T07:07:36;4.75;;;1.45;;
74963;SDS011;63521;51.900;4.748;2023-05-29T07:10:02;6.57;;;1.60;;
74963;SDS011;63521;51.900;4.748;2023-05-29T07:12:27;4.85;;;2.22;;
74963;SDS011;63521;51.900;4.748;2023-05-29T07:14:53;3.60;;;1.30;;
74963;SDS011;63521;51.900;4.748;2023-05-29T07:17:18;3.47;;;1.30;;
74963;SDS011;63521;51.900;4.748;2023-05-29T07:19:43;5.90;;;1.50;;
74963;SDS011;63521;51.900;4.748;2023-05-29T07:22:09;4.32;;;1.38;;
74963;SDS011;63521;51.900;4.748;2023-05-29T07:24:35;7.03;;;1.50;;
74963;SDS011;63521;51.900;4.748;2023-05-29T07:27:00;2.85;;;1.38;;
74963;SDS011;63521;51.900;4.748;2023-05-29T07:29:26;5.88;;;1.50;;
74963;SDS011;63521;51.900;4.748;2023-05-29T07:31:51;5.05;;;1.40;;
74963;SDS011;63521;51.900;4.748;2023-05-29T07:34:16;4.60;;;1.20;;
74963;SDS011;63521;51.900;4.748;2023-05-29T07:37:02;2.90;;;1.20;;
74963;SDS011;63521;51.900;4.748;2023-05-29T07:39:29;4.32;;;1.25;;
74963;SDS011;63521;51.900;4.748;2023-05-29T07:41:58;6.45;;;1.25;;
74963;SDS011;63521;51.900;4.748;2023-05-29T07:44:24;1.95;;;1.23;;
74963;SDS011;63521;51.900;4.748;2023-05-29T07:46:50;3.95;;;1.40;;
74963;SDS011;63521;51.900;4.748;2023-05-29T07:49:15;6.03;;;1.83;;
74963;SDS011;63521;51.900;4.748;2023-05-29T07:51:41;6.20;;;1.40;;
74963;SDS011;63521;51.900;4.748;2023-05-29T07:54:06;3.30;;;1.35;;
74963;SDS011;63521;51.900;4.748;2023-05-29T07:56:32;3.45;;;1.40;;
74963;SDS011;63521;51.900;4.748;2023-05-29T07:58:59;4.32;;;1.40;;
74963;SDS011;63521;51.900;4.748;2023-05-29T08:01:25;3.05;;;1.20;;
74963;SDS011;63521;51.900;4.748;2023-05-29T08:03:51;2.08;;;1.10;;
74963;SDS011;63521;51.900;4.748;2023-05-29T08:06:17;5.53;;;1.55;;
74963;SDS011;63521;51.900;4.748;2023-05-29T08:08:42;12.25;;;2.03;;
74963;SDS011;63521;51.900;4.748;2023-05-29T08:11:08;10.18;;;1.60;;
74963;SDS011;63521;51.900;4.748;2023-05-29T08:13:34;11.07;;;2.00;;
74963;SDS011;63521;51.900;4.748;2023-05-29T08:15:59;11.95;;;2.20;;
74963;SDS011;63521;51.900;4.748;2023-05-29T08:18:25;7.22;;;1.88;;
74963;SDS011;63521;51.900;4.748;2023-05-29T08:20:51;7.38;;;1.60;;
74963;SDS011;63521;51.900;4.748;2023-05-29T08:23:17;5.82;;;1.70;;
74963;SDS011;63521;51.900;4.748;2023-05-29T08:25:43;7.85;;;2.10;;
74963;SDS011;63521;51.900;4.748;2023-05-29T08:28:08;6.00;;;1.52;;
74963;SDS011;63521;51.900;4.748;2023-05-29T08:30:33;4.40;;;2.03;;
74963;SDS011;63521;51.900;4.748;2023-05-29T08:32:59;9.80;;;1.70;;
74963;SDS011;63521;51.900;4.748;2023-05-29T08:35:24;5.60;;;1.70;;
74963;SDS011;63521;51.900;4.748;2023-05-29T08:37:50;6.13;;;1.73;;
74963;SDS011;63521;51.900;4.748;2023-05-29T08:40:15;6.97;;;1.60;;
74963;SDS011;63521;51.900;4.748;2023-05-29T08:42:47;3.22;;;1.45;;
74963;SDS011;63521;51.900;4.748;2023-05-29T08:45:16;5.35;;;1.60;;
74963;SDS011;63521;51.900;4.748;2023-05-29T08:47:43;4.63;;;1.60;;
74963;SDS011;63521;51.900;4.748;2023-05-29T08:50:09;3.90;;;1.40;;
74963;SDS011;63521;51.900;4.748;2023-05-29T08:52:35;3.33;;;1.65;;
74963;SDS011;63521;51.900;4.748;2023-05-29T08:55:01;4.57;;;1.60;;
74963;SDS011;63521;51.900;4.748;2023-05-29T08:57:28;5.72;;;1.75;;
74963;SDS011;63521;51.900;4.748;2023-05-29T08:59:54;2.65;;;1.35;;
74963;SDS011;63521;51.900;4.748;2023-05-29T09:02:20;4.32;;;1.60;;
74963;SDS011;63521;51.900;4.748;2023-05-29T09:04:46;4.05;;;1.40;;
74963;SDS011;63521;51.900;4.748;2023-05-29T09:07:18;4.00;;;1.70;;
74963;SDS011;63521;51.900;4.748;2023-05-29T09:09:47;6.68;;;1.58;;
74963;SDS011;63521;51.900;4.748;2023-05-29T09:12:13;4.28;;;1.70;;
74963;SDS011;63521;51.900;4.748;2023-05-29T09:14:40;4.75;;;1.67;;
74963;SDS011;63521;51.900;4.748;2023-05-29T09:17:07;3.97;;;1.45;;
74963;SDS011;63521;51.900;4.748;2023-05-29T09:19:33;3.13;;;1.50;;
74963;SDS011;63521;51.900;4.748;2023-05-29T09:22:00;3.42;;;1.40;;
74963;SDS011;63521;51.900;4.748;2023-05-29T09:24:29;5.18;;;1.75;;
74963;SDS011;63521;51.900;4.748;2023-05-29T09:26:56;3.92;;;1.83;;
74963;SDS011;63521;51.900;4.748;2023-05-29T09:29:22;3.30;;;1.55;;
74963;SDS011;63521;51.900;4.748;2023-05-29T09:31:48;4.82;;;1.60;;
74963;SDS011;63521;51.900;4.748;2023-05-29T09:34:13;3.05;;;1.33;;
74963;SDS011;63521;51.900;4.748;2023-05-29T09:36:39;4.63;;;1.70;;
74963;SDS011;63521;51.900;4.748;2023-05-29T09:39:05;4.38;;;1.67;;
74963;SDS011;63521;51.900;4.748;2023-05-29T09:41:34;2.38;;;1.20;;
74963;SDS011;63521;51.900;4.748;2023-05-29T09:44:06;3.65;;;1.50;;
74963;SDS011;63521;51.900;4.748;2023-05-29T09:46:35;3.03;;;1.48;;
74963;SDS011;63521;51.900;4.748;2023-05-29T09:49:03;3.33;;;1.30;;
74963;SDS011;63521;51.900;4.748;2023-05-29T09:51:33;3.80;;;1.30;;
74963;SDS011;63521;51.900;4.748;2023-05-29T09:53:58;3.35;;;1.55;;
74963;SDS011;63521;51.900;4.748;2023-05-29T09:56:26;4.80;;;1.40;;
74963;SDS011;63521;51.900;4.748;2023-05-29T09:58:53;3.72;;;1.40;;
74963;SDS011;63521;51.900;4.748;2023-05-29T10:01:19;3.38;;;1.45;;
74963;SDS011;63521;51.900;4.748;2023-05-29T10:03:44;4.03;;;1.45;;
74963;SDS011;63521;51.900;4.748;2023-05-29T10:06:11;4.20;;;1.58;;
74963;SDS011;63521;51.900;4.748;2023-05-29T10:08:46;3.20;;;1.30;;
74963;SDS011;63521;51.900;4.748;2023-05-29T10:11:16;5.13;;;1.58;;
74963;SDS011;63521;51.900;4.748;2023-05-29T10:13:44;3.40;;;1.30;;
74963;SDS011;63521;51.900;4.748;2023-05-29T10:16:13;2.63;;;1.48;;
74963;SDS011;63521;51.900;4.748;2023-05-29T10:18:41;4.13;;;1.40;;
74963;SDS011;63521;51.900;4.748;2023-05-29T10:21:08;3.50;;;1.33;;
74963;SDS011;63521;51.900;4.748;2023-05-29T10:23:36;3.38;;;1.48;;
74963;SDS011;63521;51.900;4.748;2023-05-29T10:26:06;4.90;;;1.55;;
74963;SDS011;63521;51.900;4.748;2023-05-29T10:28:46;2.13;;;1.30;;
74963;SDS011;63521;51.900;4.748;2023-05-29T10:31:24;2.50;;;1.33;;
74963;SDS011;63521;51.900;4.748;2023-05-29T10:36:41;3.95;;;1.30;;
74963;SDS011;63521;51.900;4.748;2023-05-29T10:39:09;3.28;;;1.20;;
74963;SDS011;63521;51.900;4.748;2023-05-29T10:41:35;5.75;;;1.55;;
74963;SDS011;63521;51.900;4.748;2023-05-29T10:44:04;1.80;;;1.20;;
74963;SDS011;63521;51.900;4.748;2023-05-29T10:49:23;2.40;;;1.20;;
74963;SDS011;63521;51.900;4.748;2023-05-29T10:51:48;3.70;;;1.30;;
74963;SDS011;63521;51.900;4.748;2023-05-29T10:54:14;4.93;;;1.23;;
74963;SDS011;63521;51.900;4.748;2023-05-29T10:56:41;2.55;;;1.23;;
74963;SDS011;63521;51.900;4.748;2023-05-29T10:59:10;2.58;;;1.40;;
74963;SDS011;63521;51.900;4.748;2023-05-29T11:01:38;5.50;;;1.63;;
74963;SDS011;63521;51.900;4.748;2023-05-29T11:04:24;3.30;;;1.38;;
74963;SDS011;63521;51.900;4.748;2023-05-29T11:06:51;2.20;;;1.50;;
74963;SDS011;63521;51.900;4.748;2023-05-29T11:09:27;3.65;;;1.35;;
74963;SDS011;63521;51.900;4.748;2023-05-29T11:12:10;2.72;;;1.10;;
74963;SDS011;63521;51.900;4.748;2023-05-29T11:17:43;2.42;;;1.63;;
74963;SDS011;63521;51.900;4.748;2023-05-29T11:20:16;2.88;;;1.70;;
74963;SDS011;63521;51.900;4.748;2023-05-29T11:22:53;5.18;;;2.03;;
74963;SDS011;63521;51.900;4.748;2023-05-29T11:25:29;4.22;;;1.85;;
74963;SDS011;63521;51.900;4.748;2023-05-29T11:27:58;3.42;;;1.92;;
74963;SDS011;63521;51.900;4.748;2023-05-29T11:30:24;4.35;;;1.80;;
74963;SDS011;63521;51.900;4.748;2023-05-29T11:32:49;3.15;;;1.88;;
74963;SDS011;63521;51.900;4.748;2023-05-29T11:35:17;4.03;;;1.88;;
74963;SDS011;63521;51.900;4.748;2023-05-29T11:37:44;3.88;;;2.03;;
74963;SDS011;63521;51.900;4.748;2023-05-29T11:40:12;3.95;;;2.08;;
74963;SDS011;63521;51.900;4.748;2023-05-29T11:42:47;4.90;;;1.98;;
74963;SDS011;63521;51.900;4.748;2023-05-29T11:45:16;3.42;;;2.00;;
74963;SDS011;63521;51.900;4.748;2023-05-29T11:47:54;5.07;;;2.20;;
74963;SDS011;63521;51.900;4.748;2023-05-29T11:50:20;7.05;;;2.65;;
74963;SDS011;63521;51.900;4.748;2023-05-29T11:52:47;3.55;;;1.90;;
74963;SDS011;63521;51.900;4.748;2023-05-29T11:55:12;3.58;;;2.00;;
74963;SDS011;63521;51.900;4.748;2023-05-29T11:57:37;3.20;;;1.80;;
74963;SDS011;63521;51.900;4.748;2023-05-29T12:00:03;4.50;;;2.25;;
74963;SDS011;63521;51.900;4.748;2023-05-29T12:02:35;3.88;;;1.52;;
74963;SDS011;63521;51.900;4.748;2023-05-29T12:05:02;5.55;;;2.10;;
74963;SDS011;63521;51.900;4.748;2023-05-29T12:07:31;3.63;;;2.00;;
74963;SDS011;63521;51.900;4.748;2023-05-29T12:10:08;6.22;;;2.92;;
74963;SDS011;63521;51.900;4.748;2023-05-29T12:12:53;6.35;;;2.90;;
74963;SDS011;63521;51.900;4.748;2023-05-29T12:17:46;6.25;;;2.35;;
74963;SDS011;63521;51.900;4.748;2023-05-29T12:20:13;5.25;;;2.80;;
74963;SDS011;63521;51.900;4.748;2023-05-29T12:22:39;7.07;;;2.63;;
74963;SDS011;63521;51.900;4.748;2023-05-29T12:25:16;4.50;;;2.30;;
74963;SDS011;63521;51.900;4.748;2023-05-29T12:27:44;5.00;;;2.45;;
74963;SDS011;63521;51.900;4.748;2023-05-29T12:30:30;6.85;;;2.50;;
74963;SDS011;63521;51.900;4.748;2023-05-29T12:32:55;5.43;;;3.00;;
74963;SDS011;63521;51.900;4.748;2023-05-29T12:35:25;6.90;;;2.60;;
74963;SDS011;63521;51.900;4.748;2023-05-29T12:37:54;6.00;;;2.67;;
74963;SDS011;63521;51.900;4.748;2023-05-29T12:40:21;5.93;;;2.35;;
74963;SDS011;63521;51.900;4.748;2023-05-29T12:43:07;5.45;;;2.50;;
74963;SDS011;63521;51.900;4.748;2023-05-29T12:45:36;5.70;;;2.58;;
74963;SDS011;63521;51.900;4.748;2023-05-29T12:48:08;4.20;;;2.22;;
74963;SDS011;63521;51.900;4.748;2023-05-29T12:50:35;4.93;;;2.22;;
74963;SDS011;63521;51.900;4.748;2023-05-29T12:55:30;4.82;;;2.40;;
74963;SDS011;63521;51.900;4.748;2023-05-29T13:00:42;3.75;;;2.13;;
74963;SDS011;63521;51.900;4.748;2023-05-29T13:03:09;5.68;;;2.40;;
74963;SDS011;63521;51.900;4.748;2023-05-29T13:05:35;4.15;;;2.20;;
74963;SDS011;63521;51.900;4.748;2023-05-29T13:08:01;5.40;;;2.35;;
74963;SDS011;63521;51.900;4.748;2023-05-29T13:10:27;5.75;;;2.40;;
74963;SDS011;63521;51.900;4.748;2023-05-29T13:12:53;5.20;;;2.38;;
74963;SDS011;63521;51.900;4.748;2023-05-29T13:15:20;6.25;;;2.45;;
74963;SDS011;63521;51.900;4.748;2023-05-29T13:17:47;4.65;;;2.30;;
74963;SDS011;63521;51.900;4.748;2023-05-29T13:20:12;4.60;;;2.75;;
74963;SDS011;63521;51.900;4.748;2023-05-29T13:22:38;4.18;;;2.35;;
74963;SDS011;63521;51.900;4.748;2023-05-29T13:25:05;5.03;;;2.38;;
74963;SDS011;63521;51.900;4.748;2023-05-29T13:27:37;5.05;;;2.50;;
74963;SDS011;63521;51.900;4.748;2023-05-29T13:30:04;5.88;;;2.70;;
74963;SDS011;63521;51.900;4.748;2023-05-29T13:32:30;5.63;;;2.83;;
74963;SDS011;63521;51.900;4.748;2023-05-29T13:34:56;4.15;;;2.28;;
74963;SDS011;63521;51.900;4.748;2023-05-29T13:37:21;8.35;;;2.50;;
74963;SDS011;63521;51.900;4.748;2023-05-29T13:39:47;4.65;;;2.50;;
74963;SDS011;63521;51.900;4.748;2023-05-29T13:42:12;4.95;;;2.60;;
74963;SDS011;63521;51.900;4.748;2023-05-29T13:44:38;5.40;;;2.40;;
74963;SDS011;63521;51.900;4.748;2023-05-29T13:47:04;5.53;;;2.10;;
74963;SDS011;63521;51.900;4.748;2023-05-29T13:49:30;8.20;;;2.47;;
74963;SDS011;63521;51.900;4.748;2023-05-29T13:51:56;6.20;;;2.95;;
74963;SDS011;63521;51.900;4.748;2023-05-29T13:54:21;7.85;;;3.13;;
74963;SDS011;63521;51.900;4.748;2023-05-29T13:56:47;5.07;;;3.03;;
74963;SDS011;63521;51.900;4.748;2023-05-29T13:59:13;4.22;;;2.30;;
74963;SDS011;63521;51.900;4.748;2023-05-29T14:01:38;6.45;;;2.80;;
74963;SDS011;63521;51.900;4.748;2023-05-29T14:04:03;3.63;;;2.35;;
74963;SDS011;63521;51.900;4.748;2023-05-29T14:06:29;6.35;;;2.60;;
74963;SDS011;63521;51.900;4.748;2023-05-29T14:08:55;4.60;;;2.47;;
74963;SDS011;63521;51.900;4.748;2023-05-29T14:11:21;7.72;;;3.03;;
74963;SDS011;63521;51.900;4.748;2023-05-29T14:13:46;5.05;;;2.35;;
74963;SDS011;63521;51.900;4.748;2023-05-29T14:16:12;5.28;;;2.58;;
74963;SDS011;63521;51.900;4.748;2023-05-29T14:18:39;4.32;;;2.38;;
74963;SDS011;63521;51.900;4.748;2023-05-29T14:21:04;6.30;;;2.85;;
74963;SDS011;63521;51.900;4.748;2023-05-29T14:23:30;4.72;;;2.63;;
74963;SDS011;63521;51.900;4.748;2023-05-29T14:25:55;5.18;;;2.00;;
74963;SDS011;63521;51.900;4.748;2023-05-29T14:28:20;6.90;;;2.70;;
74963;SDS011;63521;51.900;4.748;2023-05-29T14:30:46;7.28;;;3.08;;
74963;SDS011;63521;51.900;4.748;2023-05-29T14:33:11;5.65;;;2.47;;
74963;SDS011;63521;51.900;4.748;2023-05-29T14:35:36;4.97;;;1.95;;
74963;SDS011;63521;51.900;4.748;2023-05-29T14:38:02;4.20;;;1.98;;
74963;SDS011;63521;51.900;4.748;2023-05-29T14:40:27;4.57;;;2.38;;
74963;SDS011;63521;51.900;4.748;2023-05-29T14:42:53;5.05;;;2.22;;
74963;SDS011;63521;51.900;4.748;2023-05-29T14:45:18;4.68;;;2.28;;
74963;SDS011;63521;51.900;4.748;2023-05-29T14:47:44;6.65;;;2.13;;
74963;SDS011;63521;51.900;4.748;2023-05-29T14:50:09;6.80;;;2.40;;
74963;SDS011;63521;51.900;4.748;2023-05-29T14:52:39;7.05;;;2.63;;
74963;SDS011;63521;51.900;4.748;2023-05-29T14:55:19;6.22;;;2.35;;
74963;SDS011;63521;51.900;4.748;2023-05-29T14:57:45;4.55;;;2.10;;
74963;SDS011;63521;51.900;4.748;2023-05-29T15:00:10;5.25;;;2.30;;
74963;SDS011;63521;51.900;4.748;2023-05-29T15:02:36;6.25;;;2.38;;
74963;SDS011;63521;51.900;4.748;2023-05-29T15:05:01;5.90;;;2.30;;
74963;SDS011;63521;51.900;4.748;2023-05-29T15:07:27;6.70;;;2.70;;
74963;SDS011;63521;51.900;4.748;2023-05-29T15:09:52;7.70;;;2.83;;